Accueil
METAR-TAF:

METAR-TAF

Aéroports :

Aéroport international de Larnaca

Larnaca, Chypre

latitude: 34-53N, longitude: 033-38E, altitude: 2 m

Observation

Le bulletin a été fait il y a 40 minutes, à 11:30 UTC
Vent 11 kt de sud/sud-ouest
Température 22°C
Humidité 33%
Pression 1023 hPa
Visibilité 10 km ou plus
Quelques nuages à une hauteur de 3000 ft

METAR: LCLK 231130Z 21011KT 9999 FEW030 22/05 Q1023 NOSIG

Heure: 15:10 (12:10 UTC)

Prévision

Le bulletin a été fait il y a 40 minutes, à 11:30 UTC
Prévision valable du 23 à 12 UTC au 24 à 12 UTC
Vent 13 kt de sud/sud-ouest
Visibilité 10 km ou plus
Quelques nuages à une hauteur de 3000 ft
Evoluant progressivement
du 23 à 16 UTC au 23 à 19 UTC
Vent 6 kt de nord-ouest
Evoluant progressivement
du 24 à 07 UTC au 24 à 11 UTC
Vent 10 kt de sud/sud-est

TAF: LCLK 231130Z 2312/2412 20013KT 9999 FEW030 BECMG 2316/2319 31006KT BECMG 2407/2411 16010KT

Observations et prévisions météorologiques de plus de 4000 aéroports (messages METAR et TAF).

Les stations disponibles sont représentées par des disques jaunes et rouges sur la carte.

Passer la souris dessus pour voir le nom de la station.

Cliquer dessus pour voir les observations et prévisions météorologiques.

Pour changer de carte: cliquez sur les boutons verts avec une croix noire pour zoomer, sur le bouton vert avec un tiret pour effectuer un zoom arrière, ou sur les flèches vertes pour les cartes adjacentes.


METAR-TAF: